Akeeva — WDE7272 — position and weather

sailwx.info

Track history (hours):
 
Tides and Currents Weather Stations Pressure Air Temp Water Temp Dewpoint Dewpoint Depression Visibility Wind Speed Wind Dir Waves Ship Positions

Akeeva

Owner: Cann, John P, Vancouver, WA. More information available from US FCC via Universal Licensing System and Coast Guard Vessel Documentation Center.

Last reported at 2015-Aug-23 22:14 UTC. Time now 2015-Aug-27 21:28 UTC.
Position N 48°52' W 123°26'.

Length 16 m.

Type: Pleasure craft. MMSI: 367391170.

Date/timePositionNaut miles runAvg speedWind from/ knotsBaromVisibWave heightAir tempDewpointWater temp
2015-Aug-23 22:14N 48°52' W 123°26'12 6.4
2015-Aug-23 20:18N 49°01' W 123°38'15 8.8
2015-Aug-23 18:32N 49°13' W 123°53'1010.0
2015-Aug-23 17:33N 49°23' W 123°58'9 8.9
2015-Aug-23 16:33N 49°31' W 124°02'7 7.0
2015-Aug-23 15:34N 49°38' W 124°02'0 0.0
2015-Aug-22 02:16N 49°38' W 124°02'1 1.3
2015-Aug-22 01:33N 49°38' W 124°03'9 9.2
2015-Aug-22 00:33N 49°42' W 124°17'7 7.4
2015-Aug-21 23:33N 49°45' W 124°26'9 9.1
2015-Aug-21 22:33N 49°49' W 124°39'9 8.8
2015-Aug-21 21:30N 49°54' W 124°52'  
Track history (hours):
 
Tides and Currents Weather Stations Pressure Air Temp Water Temp Dewpoint Dewpoint Depression Visibility Wind Speed Wind Dir Waves Ship Positions

Akeeva

Owner: Cann, John P, Vancouver, WA. More information available from US FCC via Universal Licensing System and Coast Guard Vessel Documentation Center.

Last reported at 2015-Aug-23 22:14 UTC. Time now 2015-Aug-27 21:28 UTC.
Position N 48°52' W 123°26'.

Length 16 m.

Type: Pleasure craft. MMSI: 367391170.

Date/timePositionNaut miles runAvg speedWind from/ knotsBaromVisibWave heightAir tempDewpointWater temp
2015-Aug-23 22:14N 48°52' W 123°26'12 6.4
2015-Aug-23 20:18N 49°01' W 123°38'15 8.8
2015-Aug-23 18:32N 49°13' W 123°53'1010.0
2015-Aug-23 17:33N 49°23' W 123°58'9 8.9
2015-Aug-23 16:33N 49°31' W 124°02'7 7.0
2015-Aug-23 15:34N 49°38' W 124°02'0 0.0
2015-Aug-22 02:16N 49°38' W 124°02'1 1.3
2015-Aug-22 01:33N 49°38' W 124°03'9 9.2
2015-Aug-22 00:33N 49°42' W 124°17'7 7.4
2015-Aug-21 23:33N 49°45' W 124°26'9 9.1
2015-Aug-21 22:33N 49°49' W 124°39'9 8.8
2015-Aug-21 21:30N 49°54' W 124°52'  

Dump ship's entire track history